createdAt,value
2023-03-02T00:00:45.553Z,5.29
2023-03-02T00:03:13.669Z,5.21
2023-03-02T00:05:41.212Z,5.13
2023-03-02T00:08:09.119Z,5.02
2023-03-02T00:10:36.517Z,4.93
2023-03-02T00:13:03.202Z,4.84
2023-03-02T00:15:29.776Z,4.79
2023-03-02T00:17:56.324Z,4.81
2023-03-02T00:20:22.814Z,4.77
2023-03-02T00:22:49.380Z,4.78
2023-03-02T00:25:16.912Z,4.72
2023-03-02T00:27:43.588Z,4.71
2023-03-02T00:30:11.152Z,4.68
2023-03-02T00:32:37.854Z,4.71
2023-03-02T00:35:04.762Z,4.68
2023-03-02T00:37:31.475Z,4.70
2023-03-02T00:39:58.390Z,4.70
2023-03-02T00:42:25.029Z,4.61
2023-03-02T00:44:52.340Z,4.56
2023-03-02T00:47:19.084Z,4.51
2023-03-02T00:49:49.072Z,4.49
2023-03-02T00:52:16.301Z,4.45
2023-03-02T00:54:43.301Z,4.44
2023-03-02T00:57:09.904Z,4.48
2023-03-02T00:59:39.693Z,4.50
2023-03-02T01:02:25.756Z,4.47
2023-03-02T01:04:55.996Z,4.66
2023-03-02T01:07:24.957Z,4.68
2023-03-02T01:09:51.837Z,4.74
2023-03-02T01:12:18.337Z,4.72
2023-03-02T01:14:47.189Z,4.67
2023-03-02T01:17:14.413Z,4.71
2023-03-02T01:19:41.410Z,4.72
2023-03-02T01:22:08.392Z,4.80
2023-03-02T01:24:35.138Z,4.84
2023-03-02T01:27:01.724Z,4.80
2023-03-02T01:29:28.304Z,4.74
2023-03-02T01:31:54.950Z,4.59
2023-03-02T01:34:21.725Z,4.54
2023-03-02T01:36:48.305Z,4.54
2023-03-02T01:39:17.957Z,4.53
2023-03-02T01:41:45.240Z,4.44
2023-03-02T01:44:30.919Z,4.46
2023-03-02T01:46:57.570Z,4.40
2023-03-02T01:49:24.603Z,4.27
2023-03-02T01:51:56.231Z,4.23
2023-03-02T01:54:23.489Z,4.22
2023-03-02T01:56:58.361Z,4.25
2023-03-02T01:59:27.504Z,4.22
2023-03-02T02:01:56.679Z,4.25
2023-03-02T02:04:24.148Z,4.26
2023-03-02T02:06:54.583Z,4.36
2023-03-02T02:09:26.796Z,4.36
2023-03-02T02:11:54.220Z,4.39
2023-03-02T02:14:21.492Z,4.43
2023-03-02T02:16:48.525Z,4.37
2023-03-02T02:19:33.335Z,4.35
2023-03-02T02:21:59.878Z,4.21
2023-03-02T02:24:31.643Z,4.17
2023-03-02T02:26:58.325Z,4.12
2023-03-02T02:29:26.948Z,3.97
2023-03-02T02:31:57.193Z,3.94
2023-03-02T02:34:35.743Z,3.85
2023-03-02T02:37:07.382Z,3.84
2023-03-02T02:39:36.044Z,3.83
2023-03-02T02:42:04.782Z,3.76
2023-03-02T02:44:32.021Z,3.69
2023-03-02T02:46:59.766Z,3.62
2023-03-02T02:49:26.328Z,3.62
2023-03-02T02:51:52.935Z,3.58
2023-03-02T02:54:21.099Z,3.62
2023-03-02T02:56:49.101Z,3.59
2023-03-02T02:59:28.952Z,3.58
2023-03-02T03:01:59.439Z,3.50
2023-03-02T03:04:28.408Z,3.55
2023-03-02T03:06:59.673Z,3.63
2023-03-02T03:09:26.966Z,3.74
2023-03-02T03:11:55.624Z,3.75
2023-03-02T03:14:25.591Z,3.70
2023-03-02T03:16:53.748Z,3.63
2023-03-02T03:19:25.055Z,3.63
2023-03-02T03:21:54.244Z,3.61
2023-03-02T03:24:22.317Z,3.61
2023-03-02T03:26:49.262Z,3.63
2023-03-02T03:29:17.624Z,3.61
2023-03-02T03:31:45.096Z,3.60
2023-03-02T03:34:12.736Z,3.55
2023-03-02T03:36:39.469Z,3.49
2023-03-02T03:39:06.470Z,3.31
2023-03-02T03:41:33.472Z,3.22
2023-03-02T03:44:00.369Z,3.22
2023-03-02T03:46:30.534Z,3.15
2023-03-02T03:48:57.464Z,3.18
2023-03-02T03:51:24.475Z,3.19
2023-03-02T03:54:00.014Z,3.30
2023-03-02T03:56:36.108Z,3.40
2023-03-02T03:59:07.546Z,3.49
2023-03-02T04:01:41.185Z,3.54
2023-03-02T04:04:10.149Z,3.55
2023-03-02T04:06:36.922Z,3.59
2023-03-02T04:09:04.817Z,3.52
2023-03-02T04:11:34.464Z,3.45
2023-03-02T04:14:01.651Z,3.48
2023-03-02T04:16:28.945Z,3.44
2023-03-02T04:18:56.461Z,3.41
2023-03-02T04:21:23.578Z,3.37
2023-03-02T04:23:51.963Z,3.38
2023-03-02T04:26:18.794Z,3.40
2023-03-02T04:28:45.588Z,3.44
2023-03-02T04:31:12.388Z,3.47
2023-03-02T04:33:39.620Z,3.45
2023-03-02T04:36:06.916Z,3.39
2023-03-02T04:38:33.633Z,3.31
2023-03-02T04:41:00.337Z,3.25
2023-03-02T04:43:27.490Z,3.26
2023-03-02T04:45:54.600Z,3.23
2023-03-02T04:48:22.073Z,3.14
2023-03-02T04:50:49.628Z,3.09
2023-03-02T04:53:16.802Z,3.07
2023-03-02T04:55:43.680Z,3.14
2023-03-02T04:58:10.194Z,3.20
2023-03-02T05:00:36.848Z,3.09
2023-03-02T05:03:07.119Z,3.04
2023-03-02T05:05:33.933Z,3.04
2023-03-02T05:08:00.571Z,3.11
2023-03-02T05:10:27.798Z,3.12
2023-03-02T05:13:05.090Z,3.14
2023-03-02T05:15:33.527Z,3.17
2023-03-02T05:18:00.508Z,3.20
2023-03-02T05:20:31.674Z,3.19
2023-03-02T05:22:59.741Z,3.17
2023-03-02T05:25:26.869Z,3.17
2023-03-02T05:27:53.469Z,3.19
2023-03-02T05:30:20.335Z,3.20
2023-03-02T05:32:47.044Z,3.19
2023-03-02T05:35:14.251Z,3.19
2023-03-02T05:37:42.675Z,3.20
2023-03-02T05:40:09.924Z,3.16
2023-03-02T05:42:36.714Z,3.21
2023-03-02T05:45:07.825Z,3.26
2023-03-02T05:47:34.339Z,3.24
2023-03-02T05:50:01.358Z,3.19
2023-03-02T05:52:28.149Z,3.21
2023-03-02T05:54:55.080Z,3.16
2023-03-02T05:57:22.168Z,3.07
2023-03-02T05:59:50.993Z,3.03
2023-03-02T06:02:17.864Z,3.04
2023-03-02T06:04:44.720Z,3.02
2023-03-02T06:07:12.176Z,3.00
2023-03-02T06:09:40.683Z,3.05
2023-03-02T06:12:08.047Z,3.04
2023-03-02T06:14:35.620Z,3.02
2023-03-02T06:17:02.488Z,2.99
2023-03-02T06:19:29.362Z,2.99
2023-03-02T06:21:56.186Z,2.97
2023-03-02T06:24:22.952Z,3.03
2023-03-02T06:26:49.704Z,3.10
2023-03-02T06:29:16.829Z,3.15
2023-03-02T06:31:43.585Z,3.20
2023-03-02T06:34:10.653Z,3.17
2023-03-02T06:36:38.815Z,3.16
2023-03-02T06:39:06.948Z,3.20
2023-03-02T06:41:33.833Z,3.23
2023-03-02T06:44:02.286Z,3.34
2023-03-02T06:46:29.079Z,3.31
2023-03-02T06:48:56.150Z,3.27
2023-03-02T06:51:24.129Z,3.37
2023-03-02T06:53:53.482Z,3.36
2023-03-02T06:56:19.993Z,3.39
2023-03-02T06:58:46.559Z,3.40
2023-03-02T07:01:13.387Z,3.36
2023-03-02T07:03:40.283Z,3.42
2023-03-02T07:06:07.181Z,3.43
2023-03-02T07:08:34.234Z,3.44
2023-03-02T07:11:04.622Z,3.44
2023-03-02T07:13:31.429Z,3.45
2023-03-02T07:15:57.965Z,3.51
2023-03-02T07:18:24.441Z,3.60
2023-03-02T07:20:50.974Z,3.75
2023-03-02T07:23:17.561Z,3.93
2023-03-02T07:25:44.167Z,4.00
2023-03-02T07:28:10.806Z,4.03
2023-03-02T07:30:37.357Z,4.08
2023-03-02T07:33:04.023Z,4.07
2023-03-02T07:35:30.669Z,4.14
2023-03-02T07:37:57.377Z,4.17
2023-03-02T07:40:24.058Z,4.22
2023-03-02T07:42:50.558Z,4.23
2023-03-02T07:45:20.238Z,4.30
2023-03-02T07:47:46.820Z,4.45
2023-03-02T07:50:13.438Z,4.51
2023-03-02T07:52:40.071Z,4.60
2023-03-02T07:55:06.807Z,4.73
2023-03-02T07:57:33.347Z,4.82
2023-03-02T07:59:59.846Z,4.94
2023-03-02T08:02:26.583Z,5.07
2023-03-02T08:04:53.426Z,5.03
2023-03-02T08:07:20.160Z,5.03
2023-03-02T08:09:46.735Z,5.07
2023-03-02T08:12:13.317Z,5.17
2023-03-02T08:14:40.331Z,5.29
2023-03-02T08:17:07.074Z,5.45
2023-03-02T08:19:34.111Z,5.52
2023-03-02T08:22:01.298Z,5.64
2023-03-02T08:24:27.994Z,5.70
2023-03-02T08:26:54.883Z,5.81
2023-03-02T08:29:21.407Z,5.91
2023-03-02T08:31:48.579Z,5.90
2023-03-02T08:34:15.325Z,5.89
2023-03-02T08:36:43.521Z,5.94
2023-03-02T08:39:10.165Z,6.02
2023-03-02T08:41:36.796Z,6.04
2023-03-02T08:44:03.355Z,6.07
2023-03-02T08:46:30.837Z,6.13
2023-03-02T08:48:57.481Z,6.19
2023-03-02T08:51:25.022Z,6.25
2023-03-02T08:53:52.611Z,6.32
2023-03-02T08:56:21.098Z,6.42
2023-03-02T08:58:48.461Z,6.50
2023-03-02T09:01:15.789Z,6.59
2023-03-02T09:03:42.400Z,6.68
2023-03-02T09:06:09.645Z,6.79
2023-03-02T09:08:36.283Z,6.84
2023-03-02T09:11:02.914Z,6.93
2023-03-02T09:13:29.564Z,7.05
2023-03-02T09:15:57.009Z,7.16
2023-03-02T09:18:23.617Z,7.36
2023-03-02T09:20:52.155Z,7.50
2023-03-02T09:23:19.411Z,7.63
2023-03-02T09:25:47.697Z,7.76
2023-03-02T09:28:14.765Z,7.82
2023-03-02T09:30:41.766Z,8.00
2023-03-02T09:33:08.836Z,8.08
2023-03-02T09:35:35.578Z,8.24
2023-03-02T09:38:02.382Z,8.26
2023-03-02T09:40:30.623Z,8.31
2023-03-02T09:43:19.489Z,8.33
2023-03-02T09:45:49.685Z,8.44
2023-03-02T09:48:22.445Z,8.45
2023-03-02T09:50:55.692Z,8.41
2023-03-02T09:53:47.584Z,8.48
2023-03-02T09:56:16.527Z,8.57
2023-03-02T09:58:47.696Z,8.69
2023-03-02T10:01:17.945Z,8.81
2023-03-02T10:03:54.698Z,8.99
2023-03-02T10:06:21.468Z,9.03
2023-03-02T10:08:50.543Z,9.16
2023-03-02T10:11:23.536Z,9.37
2023-03-02T10:14:17.517Z,9.54
2023-03-02T10:16:48.299Z,9.91
2023-03-02T10:19:25.446Z,10.34
2023-03-02T10:21:58.228Z,12.41
2023-03-02T10:24:33.653Z,16.97
2023-03-02T10:27:24.557Z,21.21
2023-03-02T10:29:57.070Z,24.76
2023-03-02T10:32:25.522Z,26.57
2023-03-02T10:34:53.074Z,27.98
2023-03-02T10:37:29.225Z,29.23
2023-03-02T10:39:55.998Z,30.28
2023-03-02T10:42:27.421Z,30.99
2023-03-02T10:44:56.005Z,31.50
2023-03-02T10:47:27.164Z,31.88
2023-03-02T10:49:55.471Z,32.11
2023-03-02T10:52:23.542Z,32.33
2023-03-02T10:54:50.632Z,31.85
2023-03-02T10:57:28.493Z,30.24
2023-03-02T11:00:00.341Z,28.83
2023-03-02T11:02:28.323Z,28.25
2023-03-02T11:04:57.985Z,28.95
2023-03-02T11:07:29.072Z,29.72
2023-03-02T11:10:00.436Z,30.80
2023-03-02T11:12:27.664Z,30.88
2023-03-02T11:15:09.550Z,30.90
2023-03-02T11:17:37.812Z,29.40
2023-03-02T11:20:09.848Z,29.47
2023-03-02T11:22:39.726Z,29.48
2023-03-02T11:25:08.506Z,30.17
2023-03-02T11:27:38.571Z,30.10
2023-03-02T11:30:11.450Z,31.50
2023-03-02T11:32:58.057Z,33.31
2023-03-02T11:35:31.292Z,34.60
2023-03-02T11:38:04.131Z,34.43
2023-03-02T11:40:30.753Z,34.37
2023-03-02T11:42:59.342Z,35.23
2023-03-02T11:45:46.339Z,35.94
2023-03-02T11:48:25.534Z,33.91
2023-03-02T11:50:52.122Z,32.51
2023-03-02T11:53:19.539Z,31.25
2023-03-02T11:55:48.818Z,31.58
2023-03-02T11:58:24.360Z,33.07
2023-03-02T12:00:52.573Z,33.68
2023-03-02T12:03:22.047Z,33.68
2023-03-02T12:05:51.633Z,33.53
2023-03-02T12:08:21.227Z,34.03
2023-03-02T12:11:07.510Z,34.20
2023-03-02T12:13:36.708Z,32.69
2023-03-02T12:16:04.753Z,31.46
2023-03-02T12:18:41.440Z,30.65
2023-03-02T12:21:07.997Z,31.36
2023-03-02T12:23:53.952Z,32.75
2023-03-02T12:26:26.409Z,33.73
2023-03-02T12:29:05.795Z,32.56
2023-03-02T12:31:47.152Z,31.52
2023-03-02T12:34:35.150Z,30.63
2023-03-02T12:37:06.219Z,30.09
2023-03-02T12:39:45.232Z,31.16
2023-03-02T12:42:14.827Z,32.38
2023-03-02T12:44:56.792Z,32.60
2023-03-02T12:47:29.662Z,30.35
2023-03-02T12:50:08.298Z,26.90
2023-03-02T12:52:37.994Z,24.18
2023-03-02T12:55:06.267Z,22.00
2023-03-02T12:57:33.562Z,20.59
2023-03-02T13:00:01.816Z,19.49
2023-03-02T13:02:33.650Z,18.91
2023-03-02T13:05:07.815Z,18.37
2023-03-02T13:07:38.126Z,18.04
2023-03-02T13:10:08.626Z,17.84
2023-03-02T13:12:36.600Z,17.59
2023-03-02T13:15:03.964Z,16.96
2023-03-02T13:17:32.652Z,16.56
2023-03-02T13:20:00.674Z,16.36
2023-03-02T13:22:28.267Z,16.16
2023-03-02T13:24:55.053Z,15.69
2023-03-02T13:27:23.753Z,15.37
2023-03-02T13:29:52.867Z,15.49
2023-03-02T13:32:26.018Z,15.55
2023-03-02T13:34:59.598Z,15.66
2023-03-02T13:37:32.378Z,15.74
2023-03-02T13:40:00.493Z,15.76
2023-03-02T13:42:40.662Z,15.65
2023-03-02T13:45:26.213Z,15.49
2023-03-02T13:47:53.660Z,15.45
2023-03-02T13:50:21.730Z,15.66
2023-03-02T13:52:48.866Z,15.89
2023-03-02T13:55:16.840Z,15.93
2023-03-02T13:57:45.899Z,15.86
2023-03-02T14:00:20.412Z,15.65
2023-03-02T14:02:50.516Z,15.73
2023-03-02T14:05:26.719Z,15.76
2023-03-02T14:07:53.376Z,15.65
2023-03-02T14:10:20.572Z,15.33
2023-03-02T14:12:53.509Z,15.25
2023-03-02T14:15:20.202Z,15.39
2023-03-02T14:17:49.162Z,15.56
2023-03-02T14:20:19.263Z,15.71
2023-03-02T14:22:46.291Z,15.71
2023-03-02T14:25:13.040Z,15.70
2023-03-02T14:27:40.093Z,15.56
2023-03-02T14:30:15.185Z,15.55
2023-03-02T14:32:41.772Z,15.46
2023-03-02T14:35:11.463Z,15.33
2023-03-02T14:37:40.774Z,15.43
2023-03-02T14:40:27.502Z,15.62
2023-03-02T14:42:54.404Z,15.56
2023-03-02T14:45:21.391Z,15.45
2023-03-02T14:47:48.919Z,15.39
2023-03-02T14:50:16.991Z,15.40
2023-03-02T14:53:02.970Z,15.26
2023-03-02T14:55:34.100Z,15.17
2023-03-02T14:58:10.711Z,15.16
2023-03-02T15:00:38.942Z,15.19
2023-03-02T15:03:05.615Z,15.32
2023-03-02T15:05:32.494Z,15.46
2023-03-02T15:07:59.634Z,15.37
2023-03-02T15:10:26.944Z,15.32
2023-03-02T15:12:53.525Z,15.31
2023-03-02T15:15:22.950Z,15.19
2023-03-02T15:17:49.783Z,15.20
2023-03-02T15:20:16.944Z,15.13
2023-03-02T15:22:43.867Z,14.98
2023-03-02T15:25:10.955Z,14.79
2023-03-02T15:27:37.904Z,14.67
2023-03-02T15:30:04.909Z,14.67
2023-03-02T15:32:31.518Z,14.78
2023-03-02T15:34:58.242Z,14.81
2023-03-02T15:37:26.566Z,14.72
2023-03-02T15:39:56.878Z,14.67
2023-03-02T15:42:23.953Z,14.49
2023-03-02T15:44:50.640Z,14.32
2023-03-02T15:47:17.528Z,14.29
2023-03-02T15:49:44.075Z,14.33
2023-03-02T15:52:14.562Z,14.38
2023-03-02T15:54:41.552Z,14.44
2023-03-02T15:57:10.427Z,14.41
2023-03-02T15:59:37.502Z,14.32
2023-03-02T16:02:05.758Z,14.20
2023-03-02T16:04:33.647Z,14.17
2023-03-02T16:07:03.413Z,14.11
2023-03-02T16:09:31.794Z,14.07
2023-03-02T16:11:59.116Z,14.00
2023-03-02T16:14:26.097Z,13.91
2023-03-02T16:16:53.338Z,13.80
2023-03-02T16:19:20.163Z,13.79
2023-03-02T16:21:48.251Z,13.75
2023-03-02T16:24:16.858Z,13.68
2023-03-02T16:26:43.568Z,13.62
2023-03-02T16:29:10.994Z,13.58
2023-03-02T16:31:39.377Z,13.50
2023-03-02T16:34:07.707Z,13.50
2023-03-02T16:36:35.272Z,13.52
2023-03-02T16:39:02.149Z,13.57
2023-03-02T16:41:29.149Z,13.51
2023-03-02T16:43:58.687Z,13.36
2023-03-02T16:46:26.360Z,13.32
2023-03-02T16:48:53.775Z,13.28
2023-03-02T16:51:21.373Z,13.20
2023-03-02T16:53:48.353Z,13.04
2023-03-02T16:56:17.177Z,12.91
2023-03-02T16:58:44.104Z,12.81
2023-03-02T17:01:12.613Z,12.77
2023-03-02T17:03:39.187Z,12.72
2023-03-02T17:06:06.456Z,12.67
2023-03-02T17:08:33.327Z,12.60
2023-03-02T17:10:59.904Z,12.54
2023-03-02T17:13:26.930Z,12.51
2023-03-02T17:15:53.699Z,12.46
2023-03-02T17:18:20.521Z,12.41
2023-03-02T17:20:50.296Z,12.39
2023-03-02T17:23:16.867Z,12.32
2023-03-02T17:25:43.450Z,12.27
2023-03-02T17:28:12.562Z,12.18
2023-03-02T17:30:39.663Z,12.12
2023-03-02T17:33:06.594Z,12.12
2023-03-02T17:35:33.303Z,12.14
2023-03-02T17:37:59.978Z,12.08
2023-03-02T17:40:26.649Z,12.03
2023-03-02T17:42:56.130Z,11.92
2023-03-02T17:45:26.001Z,11.90
2023-03-02T17:47:53.521Z,11.88
2023-03-02T17:50:20.604Z,11.89
2023-03-02T17:52:47.358Z,11.89
2023-03-02T17:55:14.057Z,11.89
2023-03-02T17:57:40.592Z,11.81
2023-03-02T18:00:08.746Z,11.79
2023-03-02T18:02:37.602Z,11.76
2023-03-02T18:05:04.362Z,11.69
2023-03-02T18:07:30.998Z,11.66
2023-03-02T18:09:57.544Z,11.60
2023-03-02T18:12:24.146Z,11.57
2023-03-02T18:14:50.674Z,11.52
2023-03-02T18:17:20.676Z,11.47
2023-03-02T18:19:48.228Z,11.40
2023-03-02T18:22:15.016Z,11.33
2023-03-02T18:24:41.617Z,11.28
2023-03-02T18:27:08.331Z,11.23
2023-03-02T18:29:34.841Z,11.16
2023-03-02T18:32:01.474Z,11.08
2023-03-02T18:34:28.100Z,11.01
2023-03-02T18:36:58.067Z,10.98
2023-03-02T18:39:25.820Z,10.94
2023-03-02T18:41:52.450Z,10.94
2023-03-02T18:44:19.941Z,10.95
2023-03-02T18:46:46.760Z,11.00
2023-03-02T18:49:13.408Z,11.04
2023-03-02T18:51:40.008Z,11.03
2023-03-02T18:54:07.590Z,11.02
2023-03-02T18:56:34.182Z,10.98
2023-03-02T18:59:00.899Z,10.96
2023-03-02T19:01:30.138Z,10.92
2023-03-02T19:03:57.612Z,10.87
2023-03-02T19:06:24.284Z,10.83
2023-03-02T19:08:50.913Z,10.82
2023-03-02T19:11:17.619Z,10.79
2023-03-02T19:13:44.159Z,10.76
2023-03-02T19:16:11.136Z,10.72
2023-03-02T19:18:38.006Z,10.68
2023-03-02T19:21:05.410Z,10.63
2023-03-02T19:23:32.481Z,10.57
2023-03-02T19:25:59.030Z,10.54
2023-03-02T19:28:26.279Z,10.54
2023-03-02T19:30:53.171Z,10.46
2023-03-02T19:33:19.772Z,10.33
2023-03-02T19:35:46.341Z,10.28
2023-03-02T19:38:13.006Z,10.24
2023-03-02T19:40:39.838Z,10.19
2023-03-02T19:43:07.640Z,10.17
2023-03-02T19:45:35.759Z,10.15
2023-03-02T19:48:03.388Z,10.14
2023-03-02T19:50:30.312Z,10.13
2023-03-02T19:52:57.863Z,10.14
2023-03-02T19:55:25.558Z,10.13
2023-03-02T19:57:59.504Z,10.09
2023-03-02T20:00:27.279Z,10.09
2023-03-02T20:02:54.104Z,10.07
2023-03-02T20:05:20.968Z,10.06
2023-03-02T20:07:47.787Z,10.03
2023-03-02T20:10:26.166Z,10.03
2023-03-02T20:12:53.034Z,10.00
2023-03-02T20:15:19.752Z,9.94
2023-03-02T20:17:46.578Z,9.85
2023-03-02T20:20:13.759Z,9.80
2023-03-02T20:22:40.377Z,9.81
2023-03-02T20:25:10.169Z,9.84
2023-03-02T20:27:36.773Z,9.80
2023-03-02T20:30:05.804Z,9.72
2023-03-02T20:32:32.407Z,9.61
2023-03-02T20:34:58.938Z,9.49
2023-03-02T20:37:26.480Z,9.37
2023-03-02T20:39:53.795Z,9.25
2023-03-02T20:42:20.682Z,9.28
2023-03-02T20:44:47.364Z,9.24
2023-03-02T20:47:15.074Z,9.25
2023-03-02T20:49:41.858Z,9.30
2023-03-02T20:52:09.063Z,9.32
2023-03-02T20:54:38.283Z,9.33
2023-03-02T20:57:05.822Z,9.25
2023-03-02T20:59:32.719Z,9.13
2023-03-02T21:01:59.406Z,9.03
2023-03-02T21:04:26.085Z,9.00
2023-03-02T21:06:52.815Z,8.99
2023-03-02T21:09:19.735Z,8.99
2023-03-02T21:11:46.427Z,9.04
2023-03-02T21:14:16.473Z,9.09
2023-03-02T21:16:43.866Z,9.09
2023-03-02T21:19:13.489Z,9.02
2023-03-02T21:21:42.200Z,8.92
2023-03-02T21:24:10.842Z,8.85
2023-03-02T21:26:37.531Z,8.82
2023-03-02T21:29:05.487Z,8.82
2023-03-02T21:31:32.089Z,8.82
2023-03-02T21:34:00.091Z,8.79
2023-03-02T21:36:27.392Z,8.73
2023-03-02T21:38:54.116Z,8.74
2023-03-02T21:41:20.994Z,8.73
2023-03-02T21:43:48.156Z,8.71
2023-03-02T21:46:15.944Z,8.68
2023-03-02T21:48:42.983Z,8.67
2023-03-02T21:51:11.106Z,8.63
2023-03-02T21:53:37.932Z,8.62
2023-03-02T21:56:04.626Z,8.59
2023-03-02T21:58:31.268Z,8.60
2023-03-02T22:00:57.885Z,8.60
2023-03-02T22:03:24.455Z,8.60
2023-03-02T22:05:51.439Z,8.53
2023-03-02T22:08:18.943Z,8.50
2023-03-02T22:10:46.472Z,8.48
2023-03-02T22:13:19.624Z,8.48
2023-03-02T22:15:46.569Z,8.49
2023-03-02T22:18:16.755Z,8.45
2023-03-02T22:20:44.568Z,8.43
2023-03-02T22:23:12.469Z,8.40
2023-03-02T22:25:39.574Z,8.27
2023-03-02T22:28:13.431Z,8.22
2023-03-02T22:30:39.965Z,8.08
2023-03-02T22:33:20.137Z,8.06
2023-03-02T22:35:47.708Z,8.09
2023-03-02T22:38:20.330Z,8.11
2023-03-02T22:40:47.088Z,8.08
2023-03-02T22:43:25.997Z,8.01
2023-03-02T22:45:53.160Z,7.92
2023-03-02T22:48:21.143Z,7.87
2023-03-02T22:50:48.671Z,7.85
2023-03-02T22:53:29.216Z,7.84
2023-03-02T22:56:03.014Z,7.75
2023-03-02T22:58:46.519Z,7.68
2023-03-02T23:01:22.145Z,7.57
2023-03-02T23:03:53.304Z,7.55
2023-03-02T23:06:25.244Z,7.58
2023-03-02T23:08:52.785Z,7.60
2023-03-02T23:11:21.060Z,7.62
2023-03-02T23:13:48.312Z,7.60
2023-03-02T23:16:18.211Z,7.65
2023-03-02T23:18:44.833Z,7.63
2023-03-02T23:21:19.690Z,7.55
2023-03-02T23:23:46.973Z,7.44
2023-03-02T23:26:13.520Z,7.42
2023-03-02T23:28:40.172Z,7.42
2023-03-02T23:31:06.774Z,7.43
2023-03-02T23:33:33.509Z,7.45
2023-03-02T23:36:00.837Z,7.48
2023-03-02T23:38:32.705Z,7.47
2023-03-02T23:40:59.336Z,7.44
2023-03-02T23:43:26.300Z,7.41
2023-03-02T23:45:52.965Z,7.43
2023-03-02T23:48:19.517Z,7.42
2023-03-02T23:50:46.504Z,7.39
2023-03-02T23:53:13.940Z,7.40
2023-03-02T23:55:43.710Z,7.40
2023-03-02T23:58:10.335Z,7.39
